Weather at Elverum Starmoen Airport

Public forecast

Using degrees Celsius for public forecast. Weather courtesy of forecast.io.

Closest aviation weather report (METAR) to Elverum Starmoen Airport

Closest report is Oslo Gardermoen Airport, 44.5 nm (82.5 km) SSW. Retrieved 2020/11/24 19:20 UTC (6 minutes ago):

ENGM 241920Z 00000KT CAVOK 03/03 Q1007 NOSIG

Closest aviation forecast (TAF) to Elverum Starmoen Airport

Closest forecast is Oslo Gardermoen Airport, 44.5 nm (82.5 km) SSW. Retrieved 2020/11/24 18:57 UTC (29 minutes ago):

TAF ENGM 241700Z 2418/2518 VRB05KT CAVOK BECMG 2421/2423 19010KT SCT004 OVC010 TEMPO 2421/2513 2000 -DZRA BR OVC003 TEMPO 2506/2515 21015G25KT BECMG 2513/2515 SCT010 BKN015